sensor_id;sensor_type;location;lat;lon;timestamp;P1;durP1;ratioP1;P2;durP2;ratioP2
15946;SDS011;8072;52.554;7.966;2023-11-18T00:01:21;11.20;;;8.73;;
15946;SDS011;8072;52.554;7.966;2023-11-18T00:03:47;11.23;;;8.87;;
15946;SDS011;8072;52.554;7.966;2023-11-18T00:06:13;11.87;;;8.33;;
15946;SDS011;8072;52.554;7.966;2023-11-18T00:08:39;13.17;;;9.10;;
15946;SDS011;8072;52.554;7.966;2023-11-18T00:11:04;11.23;;;8.93;;
15946;SDS011;8072;52.554;7.966;2023-11-18T00:13:30;12.53;;;8.80;;
15946;SDS011;8072;52.554;7.966;2023-11-18T00:15:56;11.17;;;8.57;;
15946;SDS011;8072;52.554;7.966;2023-11-18T00:18:23;12.87;;;9.17;;
15946;SDS011;8072;52.554;7.966;2023-11-18T00:20:49;12.23;;;8.30;;
15946;SDS011;8072;52.554;7.966;2023-11-18T00:23:16;16.80;;;9.33;;
15946;SDS011;8072;52.554;7.966;2023-11-18T00:25:42;11.90;;;8.43;;
15946;SDS011;8072;52.554;7.966;2023-11-18T00:28:11;10.23;;;8.10;;
15946;SDS011;8072;52.554;7.966;2023-11-18T00:30:37;9.90;;;7.90;;
15946;SDS011;8072;52.554;7.966;2023-11-18T00:33:03;9.77;;;7.83;;
15946;SDS011;8072;52.554;7.966;2023-11-18T00:35:29;11.27;;;8.67;;
15946;SDS011;8072;52.554;7.966;2023-11-18T00:37:57;12.43;;;8.53;;
15946;SDS011;8072;52.554;7.966;2023-11-18T00:40:24;12.47;;;9.07;;
15946;SDS011;8072;52.554;7.966;2023-11-18T00:42:50;13.00;;;8.50;;
15946;SDS011;8072;52.554;7.966;2023-11-18T00:45:16;12.53;;;9.60;;
15946;SDS011;8072;52.554;7.966;2023-11-18T00:47:43;10.87;;;9.03;;
15946;SDS011;8072;52.554;7.966;2023-11-18T00:50:09;15.47;;;10.03;;
15946;SDS011;8072;52.554;7.966;2023-11-18T00:52:35;12.40;;;8.40;;
15946;SDS011;8072;52.554;7.966;2023-11-18T00:55:04;12.53;;;9.30;;
15946;SDS011;8072;52.554;7.966;2023-11-18T00:57:31;16.80;;;11.07;;
15946;SDS011;8072;52.554;7.966;2023-11-18T00:59:57;12.87;;;9.93;;
15946;SDS011;8072;52.554;7.966;2023-11-18T01:02:23;16.10;;;10.87;;
15946;SDS011;8072;52.554;7.966;2023-11-18T01:04:49;15.07;;;9.27;;
15946;SDS011;8072;52.554;7.966;2023-11-18T01:07:15;15.53;;;10.10;;
15946;SDS011;8072;52.554;7.966;2023-11-18T01:09:41;17.37;;;10.57;;
15946;SDS011;8072;52.554;7.966;2023-11-18T01:12:08;15.87;;;9.77;;
15946;SDS011;8072;52.554;7.966;2023-11-18T01:14:35;16.00;;;10.27;;
15946;SDS011;8072;52.554;7.966;2023-11-18T01:17:03;15.07;;;10.53;;
15946;SDS011;8072;52.554;7.966;2023-11-18T01:19:32;13.03;;;10.00;;
15946;SDS011;8072;52.554;7.966;2023-11-18T01:21:58;16.20;;;11.77;;
15946;SDS011;8072;52.554;7.966;2023-11-18T01:24:24;15.53;;;10.70;;
15946;SDS011;8072;52.554;7.966;2023-11-18T01:26:50;24.07;;;11.87;;
15946;SDS011;8072;52.554;7.966;2023-11-18T01:29:16;18.20;;;12.07;;
15946;SDS011;8072;52.554;7.966;2023-11-18T01:31:42;17.00;;;11.73;;
15946;SDS011;8072;52.554;7.966;2023-11-18T01:34:09;19.17;;;11.37;;
15946;SDS011;8072;52.554;7.966;2023-11-18T01:36:37;19.07;;;12.17;;
15946;SDS011;8072;52.554;7.966;2023-11-18T01:39:02;16.47;;;11.40;;
15946;SDS011;8072;52.554;7.966;2023-11-18T01:41:29;21.27;;;12.43;;
15946;SDS011;8072;52.554;7.966;2023-11-18T01:43:57;20.47;;;11.97;;
15946;SDS011;8072;52.554;7.966;2023-11-18T01:46:24;25.00;;;13.00;;
15946;SDS011;8072;52.554;7.966;2023-11-18T01:48:50;23.47;;;12.67;;
15946;SDS011;8072;52.554;7.966;2023-11-18T01:51:17;19.50;;;12.93;;
15946;SDS011;8072;52.554;7.966;2023-11-18T01:53:46;20.07;;;12.17;;
15946;SDS011;8072;52.554;7.966;2023-11-18T01:56:15;22.37;;;13.43;;
15946;SDS011;8072;52.554;7.966;2023-11-18T01:58:41;19.63;;;12.93;;
15946;SDS011;8072;52.554;7.966;2023-11-18T02:01:07;24.57;;;13.80;;
15946;SDS011;8072;52.554;7.966;2023-11-18T02:03:33;23.43;;;14.13;;
15946;SDS011;8072;52.554;7.966;2023-11-18T02:06:00;20.53;;;13.00;;
15946;SDS011;8072;52.554;7.966;2023-11-18T02:08:30;20.67;;;14.10;;
15946;SDS011;8072;52.554;7.966;2023-11-18T02:11:01;24.80;;;13.53;;
15946;SDS011;8072;52.554;7.966;2023-11-18T02:13:38;39.30;;;13.10;;
15946;SDS011;8072;52.554;7.966;2023-11-18T02:16:06;20.40;;;13.17;;
15946;SDS011;8072;52.554;7.966;2023-11-18T02:18:33;17.17;;;11.77;;
15946;SDS011;8072;52.554;7.966;2023-11-18T02:21:04;18.70;;;12.53;;
15946;SDS011;8072;52.554;7.966;2023-11-18T02:23:33;19.90;;;13.37;;
15946;SDS011;8072;52.554;7.966;2023-11-18T02:25:59;22.13;;;13.70;;
15946;SDS011;8072;52.554;7.966;2023-11-18T02:28:26;22.70;;;14.37;;
15946;SDS011;8072;52.554;7.966;2023-11-18T02:30:57;23.47;;;13.30;;
15946;SDS011;8072;52.554;7.966;2023-11-18T02:33:40;21.00;;;13.63;;
15946;SDS011;8072;52.554;7.966;2023-11-18T02:39:19;23.47;;;14.57;;
15946;SDS011;8072;52.554;7.966;2023-11-18T02:41:54;22.60;;;13.90;;
15946;SDS011;8072;52.554;7.966;2023-11-18T02:44:24;18.73;;;12.33;;
15946;SDS011;8072;52.554;7.966;2023-11-18T02:46:50;23.60;;;13.70;;
15946;SDS011;8072;52.554;7.966;2023-11-18T02:49:16;22.63;;;13.73;;
15946;SDS011;8072;52.554;7.966;2023-11-18T02:51:43;27.53;;;12.57;;
15946;SDS011;8072;52.554;7.966;2023-11-18T02:54:13;22.47;;;12.93;;
15946;SDS011;8072;52.554;7.966;2023-11-18T02:56:39;18.53;;;13.47;;
15946;SDS011;8072;52.554;7.966;2023-11-18T02:59:05;19.67;;;12.53;;
15946;SDS011;8072;52.554;7.966;2023-11-18T03:01:31;27.77;;;13.20;;
15946;SDS011;8072;52.554;7.966;2023-11-18T03:03:58;28.93;;;12.43;;
15946;SDS011;8072;52.554;7.966;2023-11-18T03:06:25;18.47;;;11.77;;
15946;SDS011;8072;52.554;7.966;2023-11-18T03:08:52;20.67;;;13.43;;
15946;SDS011;8072;52.554;7.966;2023-11-18T03:11:21;21.17;;;13.43;;
15946;SDS011;8072;52.554;7.966;2023-11-18T03:13:47;23.73;;;13.03;;
15946;SDS011;8072;52.554;7.966;2023-11-18T03:16:13;41.13;;;13.17;;
15946;SDS011;8072;52.554;7.966;2023-11-18T03:18:40;26.20;;;12.63;;
15946;SDS011;8072;52.554;7.966;2023-11-18T03:21:10;20.13;;;12.90;;
15946;SDS011;8072;52.554;7.966;2023-11-18T03:23:38;29.60;;;12.87;;
15946;SDS011;8072;52.554;7.966;2023-11-18T03:26:06;22.33;;;13.07;;
15946;SDS011;8072;52.554;7.966;2023-11-18T03:28:33;28.03;;;13.97;;
15946;SDS011;8072;52.554;7.966;2023-11-18T03:31:01;22.73;;;13.77;;
15946;SDS011;8072;52.554;7.966;2023-11-18T03:33:29;27.20;;;13.50;;
15946;SDS011;8072;52.554;7.966;2023-11-18T03:35:55;24.23;;;14.37;;
15946;SDS011;8072;52.554;7.966;2023-11-18T03:38:21;26.63;;;14.43;;
15946;SDS011;8072;52.554;7.966;2023-11-18T03:40:49;27.63;;;15.03;;
15946;SDS011;8072;52.554;7.966;2023-11-18T03:43:15;28.10;;;14.27;;
15946;SDS011;8072;52.554;7.966;2023-11-18T03:45:41;26.80;;;14.53;;
15946;SDS011;8072;52.554;7.966;2023-11-18T03:48:07;24.93;;;13.80;;
15946;SDS011;8072;52.554;7.966;2023-11-18T03:50:33;28.80;;;15.17;;
15946;SDS011;8072;52.554;7.966;2023-11-18T03:52:59;29.27;;;15.60;;
15946;SDS011;8072;52.554;7.966;2023-11-18T03:55:26;27.93;;;14.83;;
15946;SDS011;8072;52.554;7.966;2023-11-18T03:57:52;24.97;;;14.30;;
15946;SDS011;8072;52.554;7.966;2023-11-18T04:00:18;28.57;;;14.70;;
15946;SDS011;8072;52.554;7.966;2023-11-18T04:02:54;29.17;;;15.63;;
15946;SDS011;8072;52.554;7.966;2023-11-18T04:05:21;30.03;;;16.17;;
15946;SDS011;8072;52.554;7.966;2023-11-18T04:07:47;29.10;;;14.67;;
15946;SDS011;8072;52.554;7.966;2023-11-18T04:10:13;30.47;;;15.23;;
15946;SDS011;8072;52.554;7.966;2023-11-18T04:12:40;26.07;;;14.20;;
15946;SDS011;8072;52.554;7.966;2023-11-18T04:15:07;29.93;;;14.33;;
15946;SDS011;8072;52.554;7.966;2023-11-18T04:17:34;33.67;;;13.20;;
15946;SDS011;8072;52.554;7.966;2023-11-18T04:20:00;31.33;;;15.27;;
15946;SDS011;8072;52.554;7.966;2023-11-18T04:22:29;33.17;;;14.67;;
15946;SDS011;8072;52.554;7.966;2023-11-18T04:24:55;36.63;;;15.77;;
15946;SDS011;8072;52.554;7.966;2023-11-18T04:27:21;34.20;;;15.37;;
15946;SDS011;8072;52.554;7.966;2023-11-18T04:29:47;35.37;;;16.17;;
15946;SDS011;8072;52.554;7.966;2023-11-18T04:32:13;39.60;;;16.10;;
15946;SDS011;8072;52.554;7.966;2023-11-18T04:34:39;42.23;;;17.10;;
15946;SDS011;8072;52.554;7.966;2023-11-18T04:37:07;36.33;;;16.00;;
15946;SDS011;8072;52.554;7.966;2023-11-18T04:39:34;35.23;;;15.73;;
15946;SDS011;8072;52.554;7.966;2023-11-18T04:42:00;34.43;;;16.30;;
15946;SDS011;8072;52.554;7.966;2023-11-18T04:44:29;34.40;;;16.23;;
15946;SDS011;8072;52.554;7.966;2023-11-18T04:46:58;41.70;;;16.67;;
15946;SDS011;8072;52.554;7.966;2023-11-18T04:49:24;37.20;;;15.63;;
15946;SDS011;8072;52.554;7.966;2023-11-18T04:51:50;37.10;;;14.70;;
15946;SDS011;8072;52.554;7.966;2023-11-18T04:54:16;39.00;;;15.53;;
15946;SDS011;8072;52.554;7.966;2023-11-18T04:56:42;43.20;;;15.13;;
15946;SDS011;8072;52.554;7.966;2023-11-18T04:59:09;42.70;;;15.73;;
15946;SDS011;8072;52.554;7.966;2023-11-18T05:01:35;33.20;;;14.93;;
15946;SDS011;8072;52.554;7.966;2023-11-18T05:04:03;29.50;;;14.53;;
15946;SDS011;8072;52.554;7.966;2023-11-18T05:06:29;36.10;;;15.00;;
15946;SDS011;8072;52.554;7.966;2023-11-18T05:08:55;28.07;;;14.37;;
15946;SDS011;8072;52.554;7.966;2023-11-18T05:11:21;29.63;;;14.27;;
15946;SDS011;8072;52.554;7.966;2023-11-18T05:13:47;28.97;;;14.47;;
15946;SDS011;8072;52.554;7.966;2023-11-18T05:16:12;31.27;;;13.67;;
15946;SDS011;8072;52.554;7.966;2023-11-18T05:18:39;27.87;;;14.17;;
15946;SDS011;8072;52.554;7.966;2023-11-18T05:21:05;25.57;;;12.53;;
15946;SDS011;8072;52.554;7.966;2023-11-18T05:23:33;31.43;;;13.70;;
15946;SDS011;8072;52.554;7.966;2023-11-18T05:26:00;39.57;;;13.63;;
15946;SDS011;8072;52.554;7.966;2023-11-18T05:28:30;28.20;;;13.70;;
15946;SDS011;8072;52.554;7.966;2023-11-18T05:30:56;40.70;;;13.60;;
15946;SDS011;8072;52.554;7.966;2023-11-18T05:33:23;26.07;;;12.30;;
15946;SDS011;8072;52.554;7.966;2023-11-18T05:35:49;27.07;;;14.37;;
15946;SDS011;8072;52.554;7.966;2023-11-18T05:38:19;28.73;;;14.47;;
15946;SDS011;8072;52.554;7.966;2023-11-18T05:40:49;30.63;;;14.27;;
15946;SDS011;8072;52.554;7.966;2023-11-18T05:43:29;25.00;;;12.87;;
15946;SDS011;8072;52.554;7.966;2023-11-18T05:46:02;21.33;;;12.37;;
15946;SDS011;8072;52.554;7.966;2023-11-18T05:48:46;31.60;;;13.20;;
15946;SDS011;8072;52.554;7.966;2023-11-18T05:51:13;30.57;;;13.17;;
15946;SDS011;8072;52.554;7.966;2023-11-18T05:53:43;24.00;;;12.20;;
15946;SDS011;8072;52.554;7.966;2023-11-18T05:56:12;35.60;;;13.03;;
15946;SDS011;8072;52.554;7.966;2023-11-18T05:58:39;25.77;;;12.67;;
15946;SDS011;8072;52.554;7.966;2023-11-18T06:01:05;27.40;;;12.60;;
15946;SDS011;8072;52.554;7.966;2023-11-18T06:03:32;28.17;;;13.40;;
15946;SDS011;8072;52.554;7.966;2023-11-18T06:05:58;32.90;;;12.90;;
15946;SDS011;8072;52.554;7.966;2023-11-18T06:08:24;35.30;;;11.97;;
15946;SDS011;8072;52.554;7.966;2023-11-18T06:10:51;38.43;;;13.20;;
15946;SDS011;8072;52.554;7.966;2023-11-18T06:13:21;24.80;;;12.60;;
15946;SDS011;8072;52.554;7.966;2023-11-18T06:15:49;26.07;;;12.27;;
15946;SDS011;8072;52.554;7.966;2023-11-18T06:18:17;42.17;;;13.07;;
15946;SDS011;8072;52.554;7.966;2023-11-18T06:20:43;26.40;;;12.47;;
15946;SDS011;8072;52.554;7.966;2023-11-18T06:23:09;48.30;;;13.00;;
15946;SDS011;8072;52.554;7.966;2023-11-18T06:25:35;33.90;;;12.57;;
15946;SDS011;8072;52.554;7.966;2023-11-18T06:28:01;28.67;;;14.17;;
15946;SDS011;8072;52.554;7.966;2023-11-18T06:30:27;31.67;;;14.30;;
15946;SDS011;8072;52.554;7.966;2023-11-18T06:32:53;33.00;;;14.40;;
15946;SDS011;8072;52.554;7.966;2023-11-18T06:35:21;28.17;;;13.57;;
15946;SDS011;8072;52.554;7.966;2023-11-18T06:37:47;28.70;;;14.30;;
15946;SDS011;8072;52.554;7.966;2023-11-18T06:40:13;25.43;;;12.77;;
15946;SDS011;8072;52.554;7.966;2023-11-18T06:42:42;22.33;;;12.67;;
15946;SDS011;8072;52.554;7.966;2023-11-18T06:45:09;24.47;;;12.87;;
15946;SDS011;8072;52.554;7.966;2023-11-18T06:47:35;22.43;;;11.97;;
15946;SDS011;8072;52.554;7.966;2023-11-18T06:50:03;22.63;;;11.80;;
15946;SDS011;8072;52.554;7.966;2023-11-18T06:52:30;24.13;;;12.90;;
15946;SDS011;8072;52.554;7.966;2023-11-18T06:54:57;28.00;;;12.73;;
15946;SDS011;8072;52.554;7.966;2023-11-18T06:57:23;25.17;;;11.63;;
15946;SDS011;8072;52.554;7.966;2023-11-18T06:59:49;42.63;;;17.60;;
15946;SDS011;8072;52.554;7.966;2023-11-18T07:02:14;48.80;;;22.53;;
15946;SDS011;8072;52.554;7.966;2023-11-18T07:04:40;43.63;;;23.70;;
15946;SDS011;8072;52.554;7.966;2023-11-18T07:07:06;44.13;;;20.50;;
15946;SDS011;8072;52.554;7.966;2023-11-18T07:09:33;38.83;;;21.40;;
15946;SDS011;8072;52.554;7.966;2023-11-18T07:12:02;39.90;;;24.73;;
15946;SDS011;8072;52.554;7.966;2023-11-18T07:14:32;32.00;;;15.23;;
15946;SDS011;8072;52.554;7.966;2023-11-18T07:16:58;26.50;;;13.90;;
15946;SDS011;8072;52.554;7.966;2023-11-18T07:19:24;31.53;;;15.50;;
15946;SDS011;8072;52.554;7.966;2023-11-18T07:21:50;30.67;;;13.33;;
15946;SDS011;8072;52.554;7.966;2023-11-18T07:24:17;30.53;;;13.03;;
15946;SDS011;8072;52.554;7.966;2023-11-18T07:26:45;24.43;;;13.90;;
15946;SDS011;8072;52.554;7.966;2023-11-18T07:29:11;39.60;;;13.30;;
15946;SDS011;8072;52.554;7.966;2023-11-18T07:31:36;32.70;;;13.77;;
15946;SDS011;8072;52.554;7.966;2023-11-18T07:34:03;26.87;;;14.60;;
15946;SDS011;8072;52.554;7.966;2023-11-18T07:36:30;35.33;;;14.83;;
15946;SDS011;8072;52.554;7.966;2023-11-18T07:38:57;32.97;;;15.27;;
15946;SDS011;8072;52.554;7.966;2023-11-18T07:41:26;37.23;;;14.10;;
15946;SDS011;8072;52.554;7.966;2023-11-18T07:43:52;35.47;;;14.20;;
15946;SDS011;8072;52.554;7.966;2023-11-18T07:46:21;31.93;;;14.60;;
15946;SDS011;8072;52.554;7.966;2023-11-18T07:48:48;28.13;;;13.53;;
15946;SDS011;8072;52.554;7.966;2023-11-18T07:51:19;31.33;;;14.33;;
15946;SDS011;8072;52.554;7.966;2023-11-18T07:53:48;36.60;;;16.17;;
15946;SDS011;8072;52.554;7.966;2023-11-18T07:56:14;38.53;;;15.97;;
15946;SDS011;8072;52.554;7.966;2023-11-18T07:58:42;41.80;;;16.70;;
15946;SDS011;8072;52.554;7.966;2023-11-18T08:01:11;37.77;;;15.03;;
15946;SDS011;8072;52.554;7.966;2023-11-18T08:03:37;37.03;;;16.37;;
15946;SDS011;8072;52.554;7.966;2023-11-18T08:06:06;48.17;;;18.60;;
15946;SDS011;8072;52.554;7.966;2023-11-18T08:08:35;41.13;;;16.13;;
15946;SDS011;8072;52.554;7.966;2023-11-18T08:11:05;48.50;;;18.23;;
15946;SDS011;8072;52.554;7.966;2023-11-18T08:13:31;45.33;;;18.10;;
15946;SDS011;8072;52.554;7.966;2023-11-18T08:15:57;48.23;;;17.67;;
15946;SDS011;8072;52.554;7.966;2023-11-18T08:18:23;52.50;;;18.67;;
15946;SDS011;8072;52.554;7.966;2023-11-18T08:20:49;43.97;;;18.60;;
15946;SDS011;8072;52.554;7.966;2023-11-18T08:23:15;48.97;;;18.30;;
15946;SDS011;8072;52.554;7.966;2023-11-18T08:25:41;50.17;;;19.23;;
15946;SDS011;8072;52.554;7.966;2023-11-18T08:28:08;45.40;;;19.30;;
15946;SDS011;8072;52.554;7.966;2023-11-18T08:30:36;47.23;;;19.10;;
15946;SDS011;8072;52.554;7.966;2023-11-18T08:33:02;43.70;;;17.47;;
15946;SDS011;8072;52.554;7.966;2023-11-18T08:35:35;53.23;;;19.40;;
15946;SDS011;8072;52.554;7.966;2023-11-18T08:38:01;54.57;;;18.70;;
15946;SDS011;8072;52.554;7.966;2023-11-18T08:40:29;50.50;;;20.67;;
15946;SDS011;8072;52.554;7.966;2023-11-18T08:42:55;48.33;;;18.60;;
15946;SDS011;8072;52.554;7.966;2023-11-18T08:45:24;50.97;;;19.70;;
15946;SDS011;8072;52.554;7.966;2023-11-18T08:47:54;52.40;;;19.27;;
15946;SDS011;8072;52.554;7.966;2023-11-18T08:50:23;49.87;;;19.43;;
15946;SDS011;8072;52.554;7.966;2023-11-18T08:52:50;57.13;;;19.43;;
15946;SDS011;8072;52.554;7.966;2023-11-18T08:55:23;50.20;;;18.93;;
15946;SDS011;8072;52.554;7.966;2023-11-18T08:58:04;52.50;;;18.93;;
15946;SDS011;8072;52.554;7.966;2023-11-18T09:00:41;50.67;;;19.27;;
15946;SDS011;8072;52.554;7.966;2023-11-18T09:03:07;47.07;;;18.53;;
15946;SDS011;8072;52.554;7.966;2023-11-18T09:05:33;47.53;;;18.80;;
15946;SDS011;8072;52.554;7.966;2023-11-18T09:08:01;49.00;;;18.57;;
15946;SDS011;8072;52.554;7.966;2023-11-18T09:10:31;55.43;;;18.97;;
15946;SDS011;8072;52.554;7.966;2023-11-18T09:12:59;44.43;;;18.47;;
15946;SDS011;8072;52.554;7.966;2023-11-18T09:15:25;44.50;;;18.50;;
15946;SDS011;8072;52.554;7.966;2023-11-18T09:17:51;42.40;;;17.67;;
15946;SDS011;8072;52.554;7.966;2023-11-18T09:20:18;49.17;;;18.87;;
15946;SDS011;8072;52.554;7.966;2023-11-18T09:22:48;47.03;;;19.30;;
15946;SDS011;8072;52.554;7.966;2023-11-18T09:25:14;48.07;;;19.70;;
15946;SDS011;8072;52.554;7.966;2023-11-18T09:27:41;43.30;;;18.17;;
15946;SDS011;8072;52.554;7.966;2023-11-18T09:30:07;44.23;;;19.63;;
15946;SDS011;8072;52.554;7.966;2023-11-18T09:32:39;44.73;;;18.33;;
15946;SDS011;8072;52.554;7.966;2023-11-18T09:35:07;42.17;;;16.90;;
15946;SDS011;8072;52.554;7.966;2023-11-18T09:37:35;48.70;;;18.40;;
15946;SDS011;8072;52.554;7.966;2023-11-18T09:40:02;50.97;;;19.33;;
15946;SDS011;8072;52.554;7.966;2023-11-18T09:42:39;45.77;;;18.63;;
15946;SDS011;8072;52.554;7.966;2023-11-18T09:45:08;44.67;;;19.30;;
15946;SDS011;8072;52.554;7.966;2023-11-18T09:47:43;47.73;;;18.77;;
15946;SDS011;8072;52.554;7.966;2023-11-18T09:50:12;42.93;;;18.33;;
15946;SDS011;8072;52.554;7.966;2023-11-18T09:52:49;48.13;;;19.10;;
15946;SDS011;8072;52.554;7.966;2023-11-18T09:55:38;44.10;;;18.80;;
15946;SDS011;8072;52.554;7.966;2023-11-18T09:58:15;48.87;;;19.10;;
15946;SDS011;8072;52.554;7.966;2023-11-18T10:00:44;45.60;;;18.83;;
15946;SDS011;8072;52.554;7.966;2023-11-18T10:03:16;47.40;;;19.10;;
15946;SDS011;8072;52.554;7.966;2023-11-18T10:05:42;40.40;;;18.27;;
15946;SDS011;8072;52.554;7.966;2023-11-18T10:08:08;39.80;;;17.77;;
15946;SDS011;8072;52.554;7.966;2023-11-18T10:10:35;46.97;;;19.70;;
15946;SDS011;8072;52.554;7.966;2023-11-18T10:13:03;38.30;;;17.27;;
15946;SDS011;8072;52.554;7.966;2023-11-18T10:15:34;44.67;;;18.07;;
15946;SDS011;8072;52.554;7.966;2023-11-18T10:18:00;41.47;;;17.87;;
15946;SDS011;8072;52.554;7.966;2023-11-18T10:23:08;66.20;;;24.03;;
15946;SDS011;8072;52.554;7.966;2023-11-18T10:25:45;42.90;;;18.40;;
15946;SDS011;8072;52.554;7.966;2023-11-18T10:28:27;59.63;;;24.07;;
15946;SDS011;8072;52.554;7.966;2023-11-18T10:31:02;46.53;;;18.77;;
15946;SDS011;8072;52.554;7.966;2023-11-18T10:33:30;40.97;;;18.47;;
15946;SDS011;8072;52.554;7.966;2023-11-18T10:35:57;36.70;;;17.90;;
15946;SDS011;8072;52.554;7.966;2023-11-18T10:38:29;40.10;;;18.67;;
15946;SDS011;8072;52.554;7.966;2023-11-18T10:41:04;41.50;;;16.87;;
15946;SDS011;8072;52.554;7.966;2023-11-18T10:43:31;41.13;;;18.90;;
15946;SDS011;8072;52.554;7.966;2023-11-18T10:46:19;41.90;;;17.90;;
15946;SDS011;8072;52.554;7.966;2023-11-18T10:48:50;43.30;;;17.13;;
15946;SDS011;8072;52.554;7.966;2023-11-18T10:51:16;39.90;;;18.07;;
15946;SDS011;8072;52.554;7.966;2023-11-18T10:54:04;36.70;;;17.13;;
15946;SDS011;8072;52.554;7.966;2023-11-18T10:56:31;41.93;;;18.20;;
15946;SDS011;8072;52.554;7.966;2023-11-18T11:04:00;36.73;;;17.83;;
15946;SDS011;8072;52.554;7.966;2023-11-18T11:06:29;36.03;;;16.77;;
15946;SDS011;8072;52.554;7.966;2023-11-18T11:08:57;36.10;;;16.67;;
15946;SDS011;8072;52.554;7.966;2023-11-18T11:11:43;34.33;;;16.23;;
15946;SDS011;8072;52.554;7.966;2023-11-18T11:14:15;35.57;;;15.97;;
15946;SDS011;8072;52.554;7.966;2023-11-18T11:16:45;39.53;;;16.80;;
15946;SDS011;8072;52.554;7.966;2023-11-18T11:19:37;32.03;;;15.80;;
15946;SDS011;8072;52.554;7.966;2023-11-18T11:22:14;36.20;;;16.43;;
15946;SDS011;8072;52.554;7.966;2023-11-18T11:30:45;35.03;;;15.90;;
15946;SDS011;8072;52.554;7.966;2023-11-18T11:33:22;32.83;;;16.20;;
15946;SDS011;8072;52.554;7.966;2023-11-18T11:36:00;38.63;;;15.83;;
15946;SDS011;8072;52.554;7.966;2023-11-18T11:38:31;34.17;;;16.23;;
15946;SDS011;8072;52.554;7.966;2023-11-18T11:40:57;29.07;;;16.20;;
15946;SDS011;8072;52.554;7.966;2023-11-18T11:43:27;35.20;;;16.70;;
15946;SDS011;8072;52.554;7.966;2023-11-18T11:45:54;37.33;;;17.37;;
15946;SDS011;8072;52.554;7.966;2023-11-18T11:48:23;36.10;;;16.97;;
15946;SDS011;8072;52.554;7.966;2023-11-18T11:53:59;66.27;;;27.20;;
15946;SDS011;8072;52.554;7.966;2023-11-18T11:56:43;52.83;;;23.80;;
15946;SDS011;8072;52.554;7.966;2023-11-18T11:59:09;35.63;;;19.17;;
15946;SDS011;8072;52.554;7.966;2023-11-18T12:01:37;36.53;;;18.13;;
15946;SDS011;8072;52.554;7.966;2023-11-18T12:04:10;34.17;;;17.03;;
15946;SDS011;8072;52.554;7.966;2023-11-18T12:06:46;34.20;;;15.83;;
15946;SDS011;8072;52.554;7.966;2023-11-18T12:09:18;32.67;;;17.30;;
15946;SDS011;8072;52.554;7.966;2023-11-18T12:11:48;28.57;;;15.90;;
15946;SDS011;8072;52.554;7.966;2023-11-18T12:14:15;34.40;;;16.07;;
15946;SDS011;8072;52.554;7.966;2023-11-18T12:17:06;35.20;;;16.20;;
15946;SDS011;8072;52.554;7.966;2023-11-18T12:19:42;27.80;;;14.23;;
15946;SDS011;8072;52.554;7.966;2023-11-18T12:22:22;27.43;;;14.00;;
15946;SDS011;8072;52.554;7.966;2023-11-18T12:35:35;27.53;;;14.07;;
15946;SDS011;8072;52.554;7.966;2023-11-18T12:43:46;22.70;;;12.93;;
15946;SDS011;8072;52.554;7.966;2023-11-18T12:49:18;24.27;;;12.17;;
15946;SDS011;8072;52.554;7.966;2023-11-18T12:51:53;26.23;;;12.03;;
15946;SDS011;8072;52.554;7.966;2023-11-18T12:54:21;24.23;;;12.30;;
15946;SDS011;8072;52.554;7.966;2023-11-18T12:56:51;25.13;;;12.70;;
15946;SDS011;8072;52.554;7.966;2023-11-18T12:59:19;22.30;;;12.40;;
15946;SDS011;8072;52.554;7.966;2023-11-18T13:01:52;23.63;;;12.87;;
15946;SDS011;8072;52.554;7.966;2023-11-18T13:04:29;22.17;;;12.47;;
15946;SDS011;8072;52.554;7.966;2023-11-18T13:06:55;23.27;;;11.60;;
15946;SDS011;8072;52.554;7.966;2023-11-18T13:09:26;23.50;;;11.83;;
15946;SDS011;8072;52.554;7.966;2023-11-18T13:11:57;22.53;;;11.30;;
15946;SDS011;8072;52.554;7.966;2023-11-18T13:14:29;21.03;;;11.73;;
15946;SDS011;8072;52.554;7.966;2023-11-18T13:17:01;20.60;;;11.37;;
15946;SDS011;8072;52.554;7.966;2023-11-18T13:19:31;24.37;;;11.63;;
15946;SDS011;8072;52.554;7.966;2023-11-18T13:22:03;20.77;;;11.93;;
15946;SDS011;8072;52.554;7.966;2023-11-18T13:24:33;21.77;;;11.93;;
15946;SDS011;8072;52.554;7.966;2023-11-18T13:27:04;21.30;;;11.43;;
15946;SDS011;8072;52.554;7.966;2023-11-18T13:29:32;20.63;;;11.13;;
15946;SDS011;8072;52.554;7.966;2023-11-18T13:32:00;21.07;;;12.40;;
15946;SDS011;8072;52.554;7.966;2023-11-18T13:34:30;22.23;;;11.80;;
15946;SDS011;8072;52.554;7.966;2023-11-18T13:37:06;23.00;;;10.50;;
15946;SDS011;8072;52.554;7.966;2023-11-18T13:39:32;19.73;;;10.97;;
15946;SDS011;8072;52.554;7.966;2023-11-18T13:42:01;24.13;;;11.83;;
15946;SDS011;8072;52.554;7.966;2023-11-18T13:44:51;25.17;;;10.93;;
15946;SDS011;8072;52.554;7.966;2023-11-18T13:47:18;20.90;;;11.67;;
15946;SDS011;8072;52.554;7.966;2023-11-18T13:49:44;24.27;;;12.53;;
15946;SDS011;8072;52.554;7.966;2023-11-18T13:52:12;62.00;;;23.37;;
15946;SDS011;8072;52.554;7.966;2023-11-18T13:54:41;31.43;;;15.30;;
15946;SDS011;8072;52.554;7.966;2023-11-18T13:57:10;23.27;;;13.40;;
15946;SDS011;8072;52.554;7.966;2023-11-18T13:59:36;24.20;;;12.33;;
15946;SDS011;8072;52.554;7.966;2023-11-18T14:02:03;18.60;;;11.73;;
15946;SDS011;8072;52.554;7.966;2023-11-18T14:04:32;20.93;;;12.30;;
15946;SDS011;8072;52.554;7.966;2023-11-18T14:07:00;22.50;;;11.77;;
15946;SDS011;8072;52.554;7.966;2023-11-18T14:09:31;24.07;;;11.80;;
15946;SDS011;8072;52.554;7.966;2023-11-18T14:12:01;20.20;;;10.90;;
15946;SDS011;8072;52.554;7.966;2023-11-18T14:14:28;25.67;;;12.27;;
15946;SDS011;8072;52.554;7.966;2023-11-18T14:16:54;23.90;;;11.30;;
15946;SDS011;8072;52.554;7.966;2023-11-18T14:19:27;20.33;;;10.93;;
15946;SDS011;8072;52.554;7.966;2023-11-18T14:21:53;21.97;;;11.03;;
15946;SDS011;8072;52.554;7.966;2023-11-18T14:24:20;20.27;;;11.80;;
15946;SDS011;8072;52.554;7.966;2023-11-18T14:26:53;25.33;;;12.40;;
15946;SDS011;8072;52.554;7.966;2023-11-18T14:29:19;22.17;;;12.20;;
15946;SDS011;8072;52.554;7.966;2023-11-18T14:31:45;21.33;;;12.03;;
15946;SDS011;8072;52.554;7.966;2023-11-18T14:34:11;22.40;;;11.70;;
15946;SDS011;8072;52.554;7.966;2023-11-18T14:36:38;18.77;;;10.53;;
15946;SDS011;8072;52.554;7.966;2023-11-18T14:39:06;20.60;;;11.07;;
15946;SDS011;8072;52.554;7.966;2023-11-18T14:41:35;19.77;;;10.80;;
15946;SDS011;8072;52.554;7.966;2023-11-18T14:44:01;17.63;;;10.80;;
15946;SDS011;8072;52.554;7.966;2023-11-18T14:46:29;19.50;;;10.93;;
15946;SDS011;8072;52.554;7.966;2023-11-18T14:48:58;21.83;;;10.33;;
15946;SDS011;8072;52.554;7.966;2023-11-18T14:51:24;17.80;;;10.97;;
15946;SDS011;8072;52.554;7.966;2023-11-18T14:53:51;19.47;;;10.93;;
15946;SDS011;8072;52.554;7.966;2023-11-18T14:56:17;21.63;;;11.33;;
15946;SDS011;8072;52.554;7.966;2023-11-18T14:58:45;25.90;;;10.87;;
15946;SDS011;8072;52.554;7.966;2023-11-18T15:01:14;15.07;;;9.87;;
15946;SDS011;8072;52.554;7.966;2023-11-18T15:03:40;20.07;;;10.73;;
15946;SDS011;8072;52.554;7.966;2023-11-18T15:06:06;20.57;;;11.20;;
15946;SDS011;8072;52.554;7.966;2023-11-18T15:08:35;19.20;;;10.17;;
15946;SDS011;8072;52.554;7.966;2023-11-18T15:11:01;19.47;;;10.37;;
15946;SDS011;8072;52.554;7.966;2023-11-18T15:13:27;22.97;;;11.10;;
15946;SDS011;8072;52.554;7.966;2023-11-18T15:15:53;17.73;;;10.50;;
15946;SDS011;8072;52.554;7.966;2023-11-18T15:18:20;19.40;;;10.10;;
15946;SDS011;8072;52.554;7.966;2023-11-18T15:20:47;19.77;;;10.17;;
15946;SDS011;8072;52.554;7.966;2023-11-18T15:23:13;18.77;;;10.00;;